Latest Weather Observations for Scone Airport

IDN60801

Issued at 10:35 am EST Thursday 28 August 2014 (issued every 30 minutes, with the page automatically refreshed every 10 minutes)

About weather observations | Map of weather stations | Latest weather observations for NSW | Other Formats
Station Details ID: 061363 Name: SCONE AIRPORT AWS Lat: -32.03 Lon: 150.83 Height: 221.4 m
Data from the previous 72 hours. | See also: Recent months at Scone Airport
Date/Time
EST
Temp
°C
App
Temp
°C
Dew
Point
Rel
Hum
%
Delta-T
°C
Wind Press
QNH
hPa
Press
MSL
hPa
Rain
since 9 am
mm
Dir
 
Spd
km/h
Gust
km/h
Spd
kts
Gust
kts
28/10:30am 13.9 9.8 11.6 86 1.2 SSE 24 30 13 16 1025.3 - 0.2
28/10:00am 12.6 9.3 11.7 94 0.5 SSE 20 28 11 15 1025.4 - 0.2
28/09:30am 12.4 8.9 12.2 99 0.1 SSE 22 33 12 18 1025.3 - 0.2
28/09:00am 11.9 7.8 11.4 97 0.3 SSE 24 33 13 18 1025.0 1025.3 0.8
28/08:30am 11.4 8.6 11.2 99 0.1 SSE 17 24 9 13 1024.9 - 0.8
28/08:00am 10.8 8.9 10.6 99 0.1 SSE 11 15 6 8 1024.6 - 0.8
28/07:30am 10.6 8.3 10.4 99 0.1 SSE 13 15 7 8 1024.3 - 0.8
28/07:00am 10.4 8.0 10.2 99 0.1 SSE 13 17 7 9 1023.8 - 0.8
28/06:30am 10.4 8.4 10.2 99 0.1 S 11 17 6 9 1023.9 - 0.8
28/06:00am 10.5 8.2 10.3 99 0.1 SSE 13 19 7 10 1023.6 1023.8 0.6
28/05:30am 10.3 8.3 10.1 99 0.1 SSE 11 15 6 8 1023.2 - 0.6
28/05:00am 10.5 8.5 10.3 99 0.1 S 11 15 6 8 1023.1 - 0.6
28/04:30am 10.4 8.4 10.2 99 0.1 SE 11 13 6 7 1022.9 - 0.6
28/04:00am 10.5 8.5 10.3 99 0.1 SE 11 13 6 7 1022.7 - 0.6
28/03:30am 10.4 8.0 10.1 98 0.2 SE 13 19 7 10 1022.9 - 0.6
28/03:00am 10.6 7.3 9.5 93 0.6 S 17 22 9 12 1023.1 1023.3 0.6
28/02:30am 11.0 9.1 9.1 88 1.0 SSE 9 13 5 7 1023.1 - 0.6
28/02:00am 11.0 8.7 9.1 88 1.0 SE 11 17 6 9 1023.4 - 0.6
28/01:30am 11.4 9.0 8.6 83 1.4 S 11 13 6 7 1023.5 - 0.6
28/01:00am 11.3 8.2 9.0 86 1.2 S 15 19 8 10 1023.7 - 0.6
28/12:30am 11.4 8.8 9.3 87 1.1 SSE 13 17 7 9 1023.8 - 0.6
28/12:00am 11.4 10.9 9.5 88 1.0 SW 2 7 1 4 1024.0 1024.2 0.6
 
Date/Time
EST
Temp
°C
App
Temp
°C
Dew
Point
Rel
Hum
%
Delta-T
°C
Wind Press
QNH
hPa
Press
MSL
hPa
Rain
since 9 am
mm
Dir
 
Spd
km/h
Gust
km/h
Spd
kts
Gust
kts
27/11:30pm 11.3 11.2 9.6 89 0.9 CALM 0 0 0 0 1023.9 - 0.6
27/11:00pm 11.4 8.8 9.5 88 1.0 SSE 13 17 7 9 1024.1 - 0.6
27/10:30pm 11.8 8.2 9.9 88 1.0 SSE 19 24 10 13 1024.0 - 0.6
27/10:00pm 11.9 7.4 10.1 89 0.9 SSE 24 32 13 17 1023.9 - 0.6
27/09:30pm 11.9 8.6 11.0 94 0.5 SSE 19 26 10 14 1024.0 - 0.6
27/09:00pm 11.5 9.4 11.3 99 0.1 SSE 13 17 7 9 1023.9 1024.1 0.6
27/08:30pm 11.7 7.5 11.2 97 0.3 SSE 24 33 13 18 1023.9 - 0.6
27/08:00pm 12.2 8.8 11.1 93 0.6 SSE 20 28 11 15 1023.7 - 0.4
27/07:30pm 12.3 8.9 11.2 93 0.6 SSE 20 24 11 13 1023.4 - 0.4
27/07:00pm 12.1 9.0 11.5 96 0.3 SSE 19 22 10 12 1023.2 - 0.4
27/06:30pm 11.7 9.2 11.2 97 0.3 SSE 15 19 8 10 1022.9 - 0.2
27/06:00pm 12.1 9.4 10.3 89 0.9 S 15 20 8 11 1022.5 1022.7 0.2
27/05:30pm 12.5 9.3 10.0 85 1.3 S 17 30 9 16 1022.3 - 0.2
27/05:00pm 13.4 9.5 10.8 84 1.4 SSE 22 33 12 18 1022.0 - 0.2
27/04:30pm 13.8 10.0 11.1 84 1.4 S 22 28 12 15 1021.7 - 0.2
27/04:00pm 14.1 8.8 11.1 82 1.6 S 30 41 16 22 1021.2 - 0.2
27/03:30pm 14.9 10.9 10.3 74 2.4 S 22 30 12 16 1021.0 - 0.2
27/03:00pm 14.9 9.8 10.7 76 2.2 SSE 28 39 15 21 1020.9 1021.1 0.0
27/02:30pm 17.2 11.3 11.2 68 3.3 SSE 33 43 18 23 1020.5 - 0.0
27/02:00pm 15.4 9.7 11.0 75 2.4 S 32 41 17 22 1020.6 - 0.0
27/01:30pm 17.2 11.7 9.1 59 4.2 SSE 28 41 15 22 1020.7 - 0.0
27/01:00pm 16.2 12.3 10.9 71 2.9 SSE 22 30 12 16 1020.9 - 0.0
27/12:30pm 14.3 10.4 12.0 86 1.3 SSE 24 30 13 16 1021.6 - 0.0
27/12:00pm 15.2 9.4 11.6 79 2.0 S 33 44 18 24 1021.7 1021.9 0.0
27/11:30am 14.8 9.1 11.9 83 1.6 S 33 44 18 24 1022.1 - 0.0
27/11:00am 15.8 11.6 12.5 81 1.8 S 26 35 14 19 1022.1 - 0.0
27/10:30am 14.9 10.6 11.9 82 1.6 S 26 33 14 18 1022.4 - 0.0
27/10:00am 14.7 10.7 11.7 82 1.6 S 24 35 13 19 1022.6 - 0.0
27/09:30am 13.9 9.7 12.5 91 0.8 S 26 33 14 18 1022.3 - 0.0
27/09:00am 13.5 9.4 12.6 94 0.5 S 26 35 14 19 1022.3 1022.5 16.0
27/08:30am 12.8 9.4 12.6 99 0.1 S 22 30 12 16 1022.4 - 16.0
27/08:00am 12.5 9.0 12.3 99 0.1 S 22 28 12 15 1022.1 - 16.0
27/07:30am 11.8 8.5 11.6 99 0.1 S 20 28 11 15 1021.8 - 16.0
27/07:00am 11.6 7.1 11.4 99 0.1 S 26 37 14 20 1021.1 - 16.0
27/06:30am 11.6 6.3 11.4 99 0.1 S 30 39 16 21 1020.9 - 16.0
27/06:00am 11.6 6.3 11.4 99 0.1 S 30 37 16 20 1020.5 1020.7 15.4
27/05:30am 11.7 6.9 11.5 99 0.1 S 28 39 15 21 1020.5 - 14.2
27/05:00am 12.0 9.0 11.8 99 0.1 S 19 26 10 14 1020.4 - 12.0
27/04:30am 11.8 8.5 11.6 99 0.1 S 20 30 11 16 1020.7 - 9.2
27/04:00am 11.5 8.3 11.3 99 0.1 S 19 22 10 12 1020.2 - 8.2
27/03:30am 11.8 10.2 11.6 99 0.1 S 11 17 6 9 1020.6 - 6.6
27/03:00am 11.9 9.6 11.7 99 0.1 S 15 19 8 10 1020.4 1020.6 5.0
27/02:30am 12.1 8.9 11.9 99 0.1 S 20 26 11 14 1020.7 - 4.2
27/02:00am 12.4 9.9 12.2 99 0.1 S 17 24 9 13 1020.8 - 3.6
27/01:30am 12.4 9.5 12.2 99 0.1 S 19 26 10 14 1020.6 - 3.4
27/01:00am 12.4 8.9 12.2 99 0.1 S 22 26 12 14 1020.8 - 3.4
27/12:30am 12.1 9.1 11.9 99 0.1 S 19 24 10 13 1021.0 - 3.4
27/12:00am 12.1 9.1 11.9 99 0.1 S 19 24 10 13 1021.2 1021.5 3.4
 
Date/Time
EST
Temp
°C
App
Temp
°C
Dew
Point
Rel
Hum
%
Delta-T
°C
Wind Press
QNH
hPa
Press
MSL
hPa
Rain
since 9 am
mm
Dir
 
Spd
km/h
Gust
km/h
Spd
kts
Gust
kts
26/11:30pm 12.2 9.0 12.0 99 0.1 S 20 28 11 15 1021.0 - 3.4
26/11:00pm 12.1 9.1 11.9 99 0.1 S 19 24 10 13 1021.2 - 3.4
26/10:30pm 11.9 8.8 11.7 99 0.1 S 19 24 10 13 1021.0 - 3.4
26/10:00pm 12.1 9.1 11.9 99 0.1 S 19 22 10 12 1021.7 - 3.4
26/09:30pm 12.2 9.6 12.0 99 0.1 S 17 24 9 13 1021.7 - 3.4
26/09:00pm 12.0 9.3 11.8 99 0.1 S 17 24 9 13 1021.3 1021.6 3.4
26/08:30pm 12.4 9.9 12.2 99 0.1 S 17 22 9 12 1021.6 - 3.2
26/08:00pm 12.4 9.5 12.2 99 0.1 S 19 24 10 13 1021.3 - 3.2
26/07:30pm 12.7 10.3 12.5 99 0.1 S 17 24 9 13 1021.4 - 3.2
26/07:00pm 12.8 10.4 12.5 98 0.2 S 17 22 9 12 1021.0 - 3.2
26/06:30pm 12.6 8.8 12.3 98 0.2 S 24 30 13 16 1020.7 - 3.2
26/06:00pm 12.6 9.1 12.1 97 0.3 S 22 30 12 16 1020.3 1020.5 3.2
26/05:30pm 13.1 9.5 11.8 92 0.7 S 22 30 12 16 1020.1 - 3.0
26/05:00pm 13.3 10.4 12.8 97 0.3 S 20 26 11 14 1019.8 - 3.0
26/04:30pm 13.2 10.4 12.7 97 0.3 S 19 26 10 14 1019.8 - 3.0
26/04:00pm 13.2 10.3 12.9 98 0.2 S 20 26 11 14 1019.6 - 3.0
26/03:30pm 13.7 10.4 12.8 94 0.5 S 22 28 12 15 1019.5 - 2.6
26/03:00pm 14.1 10.5 12.0 87 1.1 SSE 22 28 12 15 1019.2 1019.4 2.4
26/02:30pm 14.2 10.0 12.4 89 1.0 S 26 35 14 19 1019.1 - 2.2
26/02:00pm 13.8 10.8 12.5 92 0.7 S 20 26 11 14 1019.3 - 2.2
26/01:30pm 14.0 11.4 13.2 95 0.4 SSE 19 24 10 13 1019.6 - 2.2
26/01:00pm 14.1 10.1 11.8 86 1.2 S 24 32 13 17 1019.8 - 1.0
26/12:30pm 16.4 13.1 10.9 70 3.0 S 19 30 10 16 1019.9 - 0.0
26/12:00pm 15.9 12.6 11.5 75 2.4 S 20 28 11 15 1020.5 1020.7 0.0
26/11:30am 14.8 11.3 11.0 78 2.0 SSE 20 28 11 15 1021.1 - 0.0
26/11:00am 14.7 11.3 11.3 80 1.8 SSE 20 28 11 15 1021.6 - 0.0
26/10:30am 14.3 11.2 12.2 87 1.2 SSE 20 26 11 14 1021.9 - 0.0
26/10:00am 13.1 10.7 12.5 96 0.3 SSE 17 22 9 12 1022.0 - 0.0
26/09:30am 12.4 10.2 12.2 99 0.1 SSE 15 20 8 11 1022.1 - 0.0
26/09:00am 12.1 9.5 11.9 99 0.1 SSE 17 24 9 13 1022.0 1022.2 0.0
26/08:30am 11.8 10.5 11.3 97 0.3 SE 9 11 5 6 1022.0 - 0.0
26/08:00am 11.4 10.4 11.1 98 0.2 SE 7 11 4 6 1021.9 - 0.0
26/07:30am 11.4 9.3 11.2 99 0.1 S 13 17 7 9 1021.7 - 0.0
26/07:00am 11.1 10.6 10.8 98 0.2 SE 4 11 2 6 1021.3 - 0.0
26/06:30am 10.8 9.8 10.3 97 0.3 ENE 6 7 3 4 1021.2 - 0.0
26/06:00am 11.1 10.2 10.6 97 0.3 S 6 7 3 4 1020.8 1021.0 0.0
26/05:30am 11.3 10.4 10.8 97 0.3 S 6 6 3 3 1020.4 - 0.0
26/05:00am 11.1 10.1 10.9 99 0.1 SSW 7 9 4 5 1020.3 - 0.0
26/04:30am 10.5 10.3 10.3 99 0.1 SSW 2 6 1 3 1020.3 - 0.0
26/04:00am 10.3 10.4 10.1 99 0.1 CALM 0 0 0 0 1020.2 - 0.0
26/03:30am 9.9 9.1 9.6 98 0.2 NE 4 7 2 4 1020.2 - 0.0
26/03:00am 9.7 9.6 9.6 99 0.1 CALM 0 0 0 0 1020.3 1020.5 0.0
26/02:30am 9.3 8.4 9.2 99 0.0 ENE 4 7 2 4 1020.3 - 0.0
26/02:00am 9.1 8.9 9.0 99 0.0 CALM 0 0 0 0 1020.5 - 0.0
26/01:30am 9.1 8.9 9.0 99 0.0 CALM 0 0 0 0 1020.7 - 0.0
26/01:00am 8.1 7.3 8.0 99 0.0 ENE 2 6 1 3 1020.9 - 0.0
26/12:30am 8.0 7.5 7.9 99 0.0 CALM 0 0 0 0 1021.0 - 0.0
26/12:00am 6.5 4.5 6.4 99 0.0 NE 6 7 3 4 1021.1 1021.4 0.0
 
Date/Time
EST
Temp
°C
App
Temp
°C
Dew
Point
Rel
Hum
%
Delta-T
°C
Wind Press
QNH
hPa
Press
MSL
hPa
Rain
since 9 am
mm
Dir
 
Spd
km/h
Gust
km/h
Spd
kts
Gust
kts
25/11:30pm 6.3 4.9 5.6 95 0.3 NE 2 7 1 4 1021.2 - 0.0
25/11:00pm 6.7 5.4 6.0 95 0.3 ENE 2 7 1 4 1021.3 - 0.0
25/10:30pm 6.9 4.6 5.8 93 0.5 ENE 7 9 4 5 1021.4 - 0.0
25/10:00pm 8.5 7.0 7.0 90 0.7 S 4 13 2 7 1021.7 - 0.0
25/09:30pm 8.2 6.8 7.1 93 0.5 S 4 9 2 5 1021.9 - 0.0
25/09:00pm 8.4 7.7 6.9 90 0.7 CALM 0 0 0 0 1021.8 1022.0 0.0
25/08:30pm 8.5 6.8 5.8 83 1.2 NNW 4 7 2 4 1021.7 - 0.0
25/08:00pm 9.6 8.5 6.7 82 1.4 E 2 6 1 3 1021.6 - 0.0
25/07:30pm 10.2 8.6 6.5 78 1.8 ESE 4 6 2 3 1021.4 - 0.0
25/07:00pm 11.2 10.0 6.5 73 2.2 SE 2 6 1 3 1021.1 - 0.0
25/06:30pm 13.8 11.0 7.1 64 3.3 SSW 11 13 6 7 1020.8 - 0.0
25/06:00pm 14.2 11.5 7.3 63 3.4 S 11 13 6 7 1020.6 1020.8 0.0
25/05:30pm 15.3 12.3 7.6 60 3.9 SSE 13 13 7 7 1020.5 - 0.0
25/05:00pm 17.3 14.6 7.4 52 5.0 S 11 17 6 9 1020.4 - 0.0
25/04:30pm 18.5 15.3 6.7 46 6.0 SSE 13 17 7 9 1020.4 - 0.0
25/04:00pm 18.9 15.6 6.4 44 6.3 S 13 20 7 11 1020.6 - 0.0
25/03:30pm 19.3 15.9 5.7 41 6.8 SSE 13 19 7 10 1020.7 - 0.0
25/03:00pm 18.8 15.6 5.3 41 6.6 SSE 11 17 6 9 1020.9 1021.1 0.0
25/02:30pm 18.8 16.2 6.3 44 6.3 SSE 9 15 5 8 1021.1 - 0.0
25/02:00pm 18.2 15.5 5.4 43 6.3 SSE 9 19 5 10 1021.4 - 0.0
25/01:30pm 18.3 16.0 7.4 49 5.6 S 9 15 5 8 1022.0 - 0.0
25/01:00pm 17.4 15.3 8.3 55 4.7 SE 9 15 5 8 1022.5 - 0.0
25/12:30pm 17.1 16.0 9.8 62 3.9 WSW 6 9 3 5 1023.0 - 0.0
25/12:00pm 15.5 15.2 10.1 70 2.8 W 2 9 1 5 1023.6 1023.8 0.0
25/11:30am 14.1 13.0 9.9 76 2.2 NW 6 11 3 6 1024.4 - 0.0
25/11:00am 12.0 11.2 9.7 86 1.2 NW 4 9 2 5 1025.1 - 0.0

Other Formats:

Comma delimited format used in spreadsheet applications
http://www.bom.gov.au/fwo/IDN60801/IDN60801.95758.axf

JavaScript Object Notation format (JSON) in row-major order
http://www.bom.gov.au/fwo/IDN60801/IDN60801.95758.json